Norfolk Ns (Chambers Fld) Airport
KNGU : rendu visible

Aérodrome :











RETROUVEZ-NOUS SUR...

 
LOGIN :

S'inscrire | Disclaimer

   EN    FR    IT 

 









Légende :    VFR   VFR Marginal   IFR   IFR Intensif   IFR Très Intensif
Visi : 
Plafond : 
>= 8 km
>= 3000ft
5 à 8 km
1000 à 3000 ft
1500m à 5 km
500 à 1000 ft
800 à 1500m
200 à 500 ft
< 800m
< 200 ft
Symboles :   Orages  Brouillard  Fortes neiges  Fortes précipitations  Vent > 20 kt






- Altitude de l'aérodrome : 17 ft


KNGU - Norfolk Ns (Chambers Fld)

DERNIER METAR :
  • 210759Z 33013KT 10SM CLR 07/01 A3025 RMK AO2 SLP243 T00720011

METARs EXPIRÉS :
  • 210659Z 32013KT 10SM CLR 07/01 A3024 RMK AO2 SLP240 T00720011
  • 210559Z 31013KT 10SM CLR 08/01 A3023 RMK AO2 SLP236 T00780011 10106 20072 53008

TAF TAF KNGU
Valide du 21 à 07h jusqu'au 22 à 07h UTC


2107/2207 32012G20KT 9999 FEW250 QNH3017INS
FM211300 32006KT 9999 FEW030 SCT200 QNH3021INS
BECMG 2119/2121 20008KT 9999 SCT150 BKN250 QNH3012INS
FM220400 21010G20KT 9999 BKN120 QNH3002INS T06/2109Z T12/2119Z FN00221



MET'MAP, la Météo Aéronautique d'un coup d'oeil ! - Copyright ORBIFLY Décembre 2007 - Disclaimer

ORBIFLY MET'MAP TEAM :

Programmation & Développement : Alexandra Zaïnal
Conception & Développement : Baudouin d'Aumeries
Co-Programmation & Développement : Marc-Olivier Méhu
Soutien technique & logistique : Manuel Goepfert

Contact : metmap@orbifly.com




SOURCES & CREDITS :

   NOAA       Earth
Advisory